Terminal Aerodrome Forecast
Issued by NWS Missoula, MT

Home | Current Version | Previous Version | Text Only | Print | Product List | Glossary On
Versions: 1 2 3 4 5 6 7 8 9 10 11 12 13 14 15 16 17 18 19
000
FTUS45 KMSO 292325
TAFMSO
TAF
KMSO 292325Z 3000/3024 31015G25KT 2SM FU VCSH BKN035 OVC090
     FM300300 31015KT 3SM FU SCT050 BKN100
     FM300600 32010KT 3SM FU VCSH BKN040 BKN080
     FM301700 28011G20KT 4SM FU VCSH BKN080
     FM302100 29018G28KT 6SM -SHRA HZ BKN050 BKN080=

USA.gov is the U.S. government's official web portal to all federal, state and local government web resources and services.